Latest Weather Observations for Trepell

IDQ60801

Issued at 7:02 pm EST Monday 29 August 2016 (issued every 30 minutes, with the page automatically refreshed every 10 minutes)

About weather observations | Map of weather stations | Latest weather observations for QLD | Other Formats
Station Details ID: 037036 Name: TREPELL AIRPORT Lat: -21.84 Lon: 140.89 Height: 266.2 m
Data from the previous 72 hours. | See also: Recent months at Trepell
Date/Time
EST
Temp
°C
App
Temp
°C
Dew
Point
°C
Rel
Hum
%
Delta-T
°C
Wind Press
QNH
hPa
Press
MSL
hPa
Rain since
9am
mm
Dir  Spd
km/h
Gust
km/h
Spd
kts
Gust
kts
29/07:00pm 23.7 20.9 8.6 38 8.2 NE 13 15 7 8 1015.6 1015.0 0.0
29/06:30pm 25.7 22.4 8.2 33 9.5 NE 15 20 8 11 1015.4 1014.8 0.0
29/06:00pm 27.3 23.1 8.2 30 10.5 NNE 20 26 11 14 1015.2 1014.6 0.0
29/05:30pm 28.1 23.2 8.4 29 10.9 NNE 24 32 13 17 1015.1 1014.5 0.0
29/05:00pm 28.6 23.7 8.3 28 11.2 NNE 24 32 13 17 1014.9 1014.3 0.0
29/04:30pm 29.0 24.5 8.7 28 11.3 NNE 22 33 12 18 1014.8 1014.2 0.0
29/04:00pm 29.1 24.5 8.2 27 11.5 NNE 22 30 12 16 1014.9 1014.3 0.0
29/03:30pm 29.6 24.9 9.2 28 11.5 NNE 24 33 13 18 1014.9 1014.3 0.0
29/03:00pm 29.2 24.3 8.3 27 11.6 NNE 24 32 13 17 1015.3 1014.7 0.0
29/02:30pm 29.1 24.5 8.2 27 11.6 NNE 22 32 12 17 1015.5 1014.9 0.0
29/02:00pm 28.6 23.5 7.8 27 11.4 NNE 24 32 13 17 1016.1 1015.4 0.0
29/01:30pm 28.1 22.8 6.8 26 11.4 NNE 24 32 13 17 1016.7 1016.0 0.0
29/01:00pm 27.5 22.1 6.3 26 11.2 NNE 24 33 13 18 1017.1 1016.4 0.0
29/12:30pm 27.3 21.6 6.7 27 11.0 NNE 26 33 14 18 1017.4 1016.7 0.0
29/12:00pm 25.8 19.7 6.4 29 10.2 NNE 28 35 15 19 1017.9 1017.3 0.0
29/11:30am 25.5 20.2 6.7 30 9.9 NNE 24 32 13 17 1018.5 1017.9 0.0
29/11:00am 25.3 19.8 6.0 29 10.0 NNE 24 33 13 18 1018.8 1018.2 0.0
29/10:30am 24.3 19.0 5.1 29 9.8 NNE 22 30 12 16 1019.0 1018.4 0.0
29/10:00am 23.2 18.9 5.2 31 9.1 NNE 17 24 9 13 1019.3 1018.7 0.0
29/09:30am 21.7 17.1 3.9 31 8.7 NNE 17 20 9 11 1019.4 1018.8 0.0
29/09:00am 20.2 15.1 3.0 32 8.2 NNE 19 24 10 13 1019.5 1018.9 0.0
29/08:30am 19.4 15.1 3.2 34 7.7 NNE 15 20 8 11 1019.3 1018.7 0.0
29/08:00am 17.7 13.9 3.9 40 6.6 NE 13 22 7 12 1018.6 1018.0 0.0
29/07:30am 13.1 10.3 5.0 58 3.8 ENE 9 11 5 6 1018.3 1017.7 0.0
29/07:00am 11.7 8.3 4.0 59 3.5 ENE 11 11 6 6 1017.8 1017.2 0.0
29/06:30am 12.1 8.6 3.6 56 3.8 NE 11 13 6 7 1017.3 1016.6 0.0
29/06:00am 12.2 8.3 3.2 54 4.0 NE 13 15 7 8 1016.8 1016.1 0.0
29/05:30am 14.0 9.6 2.9 47 5.0 NE 15 20 8 11 1016.4 1015.7 0.0
29/05:00am 13.3 9.5 3.7 52 4.4 NNE 13 15 7 8 1016.1 1015.4 0.0
29/04:30am 14.7 11.1 2.9 45 5.4 NNE 11 13 6 7 1016.0 1015.3 0.0
29/04:00am 14.2 10.8 3.9 50 4.8 NNE 11 11 6 6 1015.8 1015.2 0.0
29/03:30am 14.4 10.9 3.5 48 5.0 NNE 11 13 6 7 1016.0 1015.3 0.0
29/03:00am 15.5 12.4 3.6 45 5.5 N 9 9 5 5 1016.3 1015.6 0.0
29/02:30am 15.7 12.6 3.8 45 5.6 NNE 9 11 5 6 1016.4 1015.7 0.0
29/02:00am 15.8 12.8 3.9 45 5.6 NE 9 11 5 6 1016.6 1015.9 0.0
29/01:30am 15.8 12.8 4.2 46 5.5 NNE 9 13 5 7 1016.8 1016.1 0.0
29/01:00am 15.4 12.5 4.5 48 5.2 NNE 9 11 5 6 1016.9 1016.2 0.0
29/12:30am 15.7 13.2 5.0 49 5.1 NNE 7 9 4 5 1017.0 1016.3 0.0
29/12:00am 15.3 12.5 5.2 51 4.8 NE 9 11 5 6 1017.2 1016.5 0.0
 
Date/Time
EST
Temp
°C
App
Temp
°C
Dew
Point
°C
Rel
Hum
%
Delta-T
°C
Wind Press
QNH
hPa
Press
MSL
hPa
Rain since
9am
mm
Dir  Spd
km/h
Gust
km/h
Spd
kts
Gust
kts
28/11:30pm 16.3 13.6 5.6 49 5.2 NE 9 11 5 6 1017.3 1016.6 0.0
28/11:00pm 15.8 13.6 6.0 52 4.8 NE 7 9 4 5 1017.4 1016.7 0.0
28/10:30pm 16.0 13.3 5.6 50 5.1 NE 9 11 5 6 1017.5 1016.8 0.0
28/10:00pm 16.7 14.0 5.6 48 5.4 NNE 9 9 5 5 1017.7 1017.0 0.0
28/09:30pm 15.8 13.1 5.7 51 4.9 ENE 9 11 5 6 1017.5 1016.8 0.0
28/09:00pm 16.3 13.4 4.7 46 5.5 NE 9 11 5 6 1017.7 1017.0 0.0
28/08:30pm 17.5 14.6 4.8 43 6.1 NE 9 11 5 6 1017.5 1016.8 0.0
28/08:00pm 18.3 15.1 5.2 42 6.4 NE 11 13 6 7 1017.2 1016.5 0.0
28/07:30pm 18.6 15.0 5.1 41 6.6 NNE 13 13 7 7 1017.0 1016.3 0.0
28/07:00pm 19.8 16.4 3.9 35 7.7 NNE 11 13 6 7 1016.8 1016.1 0.0
28/06:30pm 22.0 18.9 3.6 30 9.0 NNE 9 9 5 5 1016.8 1016.1 0.0
28/06:00pm 24.0 20.0 2.8 25 10.3 N 13 17 7 9 1016.7 1016.0 0.0
28/05:30pm 24.9 20.4 2.4 23 11.0 N 15 20 8 11 1016.4 1015.7 0.0
28/05:00pm 25.0 20.5 2.4 23 11.0 N 15 20 8 11 1016.5 1015.8 0.0
28/04:30pm 25.3 20.9 2.7 23 11.1 N 15 20 8 11 1016.5 1015.8 0.0
28/04:00pm 25.3 20.6 3.3 24 10.9 N 17 26 9 14 1016.4 1015.7 0.0
28/03:30pm 25.8 21.1 3.1 23 11.3 N 17 24 9 13 1016.6 1015.9 0.0
28/03:00pm 25.8 21.2 3.7 24 11.1 NNE 17 28 9 15 1016.8 1016.1 0.0
28/02:30pm 25.3 20.4 3.9 25 10.7 NE 19 30 10 16 1017.2 1016.5 0.0
28/02:00pm 24.9 19.7 3.5 25 10.6 NNE 20 28 11 15 1017.8 1017.2 0.0
28/01:30pm 24.6 19.1 3.8 26 10.4 NNE 22 32 12 17 1018.4 1017.8 0.0
28/01:00pm 23.6 17.6 3.5 27 9.9 NNE 24 33 13 18 1018.8 1018.2 0.0
28/12:30pm 23.3 16.9 3.3 27 9.8 NNE 26 35 14 19 1019.0 1018.4 0.0
28/12:00pm 22.2 15.3 2.8 28 9.3 NE 28 37 15 20 1019.5 1018.9 0.0
28/11:30am 21.5 14.2 2.7 29 9.0 NE 30 37 16 20 1020.0 1019.3 0.0
28/11:00am 21.1 14.2 2.4 29 8.8 NE 28 39 15 21 1020.7 1020.0 0.0
28/10:30am 20.3 13.6 1.7 29 8.6 NNE 26 35 14 19 1021.0 1020.3 0.0
28/10:00am 19.7 13.1 2.1 31 8.2 NE 26 32 14 17 1021.2 1020.6 0.0
28/09:30am 18.4 11.4 1.9 33 7.6 NE 28 37 15 20 1021.3 1020.7 0.0
28/09:00am 16.1 11.2 1.8 38 6.4 NE 17 22 9 12 1021.2 1020.6 0.0
28/08:30am 14.2 9.9 3.1 47 5.1 NE 15 19 8 10 1021.0 1020.3 0.0
28/08:00am 12.8 9.7 3.7 54 4.1 NE 9 15 5 8 1020.8 1020.1 0.0
28/07:30am 10.2 6.9 4.8 69 2.5 NE 11 13 6 7 1020.6 1019.9 0.0
28/07:00am 7.7 4.2 3.6 75 1.8 NE 11 11 6 6 1020.3 1019.6 0.0
28/06:30am 7.6 4.2 3.8 77 1.7 NE 11 13 6 7 1020.1 1019.4 0.0
28/06:00am 7.7 4.2 3.6 75 1.8 NE 11 13 6 7 1019.7 1019.1 0.0
28/05:30am 8.2 4.4 3.7 73 2.0 ENE 13 15 7 8 1019.5 1018.9 0.0
28/05:00am 9.2 5.4 3.8 69 2.4 ENE 13 17 7 9 1019.3 1018.7 0.0
28/04:30am 9.5 5.4 4.1 69 2.4 ENE 15 19 8 10 1019.3 1018.7 0.0
28/04:00am 10.1 6.0 4.5 68 2.5 ENE 15 19 8 10 1019.4 1018.8 0.0
28/03:30am 9.4 5.5 3.6 67 2.6 ENE 13 17 7 9 1019.7 1019.1 0.0
28/03:00am 9.2 5.7 3.6 68 2.5 ENE 11 13 6 7 1019.9 1019.2 0.0
28/02:30am 9.9 6.0 3.6 65 2.8 E 13 15 7 8 1020.2 1019.5 0.0
28/02:00am 10.2 6.7 3.5 63 3.0 E 11 13 6 7 1020.7 1020.0 0.0
28/01:30am 11.6 7.8 3.9 59 3.5 ESE 13 15 7 8 1021.0 1020.3 0.0
28/01:00am 10.7 7.2 3.5 61 3.2 E 11 13 6 7 1021.3 1020.7 0.0
28/12:30am 11.0 7.1 3.5 60 3.4 E 13 13 7 7 1021.4 1020.8 0.0
28/12:00am 11.6 8.0 3.1 56 3.8 E 11 11 6 6 1021.6 1021.0 0.0
 
Date/Time
EST
Temp
°C
App
Temp
°C
Dew
Point
°C
Rel
Hum
%
Delta-T
°C
Wind Press
QNH
hPa
Press
MSL
hPa
Rain since
9am
mm
Dir  Spd
km/h
Gust
km/h
Spd
kts
Gust
kts
27/11:30pm 12.0 8.4 3.0 54 4.0 E 11 13 6 7 1021.7 1021.1 0.0
27/11:00pm 13.3 9.3 3.1 50 4.6 ESE 13 15 7 8 1021.7 1021.1 0.0
27/10:30pm 14.5 10.7 3.9 49 4.9 ESE 13 17 7 9 1021.9 1021.3 0.0
27/10:00pm 14.2 10.3 3.4 48 4.9 SE 13 15 7 8 1021.8 1021.2 0.0
27/09:30pm 14.9 11.3 3.1 45 5.4 ESE 11 15 6 8 1021.8 1021.2 0.0
27/09:00pm 15.2 11.2 3.0 44 5.6 ESE 13 15 7 8 1021.6 1021.0 0.0
27/08:30pm 16.4 12.0 2.8 40 6.3 SE 15 17 8 9 1021.3 1020.7 0.0
27/08:00pm 16.5 12.1 2.9 40 6.3 SE 15 17 8 9 1021.1 1020.5 0.0
27/07:30pm 17.2 12.7 2.4 37 6.8 SE 15 17 8 9 1020.8 1020.1 0.0
27/07:00pm 18.3 13.7 1.8 33 7.5 SE 15 19 8 10 1020.5 1019.8 0.0
27/06:30pm 19.2 14.3 1.7 31 8.1 SE 17 20 9 11 1020.1 1019.4 0.0
27/06:00pm 20.1 14.4 0.5 27 8.9 SE 20 24 11 13 1019.9 1019.2 0.0
27/05:30pm 20.7 15.5 0.0 25 9.3 SE 17 24 9 13 1019.6 1019.0 0.0
27/05:00pm 21.3 15.8 0.5 25 9.5 SE 19 28 10 15 1019.6 1019.0 0.0
27/04:30pm 21.2 16.0 -0.1 24 9.6 SE 17 24 9 13 1019.5 1018.9 0.0
27/04:00pm 21.3 15.4 -0.6 23 9.8 SSE 20 28 11 15 1019.4 1018.8 0.0
27/03:30pm 21.5 16.4 0.7 25 9.6 SSE 17 24 9 13 1019.6 1019.0 0.0
27/03:00pm 21.8 16.6 -0.2 23 9.9 SE 17 30 9 16 1020.0 1019.3 0.0
27/02:30pm 21.4 17.4 0.6 25 9.5 SE 11 20 6 11 1020.5 1019.8 0.0
27/02:00pm 21.2 15.6 -0.1 24 9.6 ESE 19 26 10 14 1021.1 1020.5 0.0
27/01:30pm 21.6 16.4 0.2 24 9.8 ESE 17 26 9 14 1021.5 1020.9 0.0
27/01:00pm 21.0 15.8 0.2 25 9.4 E 17 30 9 16 1021.9 1021.3 0.0
27/12:30pm 20.4 15.5 1.8 29 8.7 ESE 17 26 9 14 1022.7 1022.1 0.0
27/12:00pm 19.6 13.8 0.1 27 8.7 ESE 20 32 11 17 1023.2 1022.6 0.0
27/11:30am 20.2 14.6 1.1 28 8.8 SE 20 33 11 18 1023.6 1023.0 0.0
27/11:00am 19.2 13.2 1.2 30 8.2 SE 22 32 12 17 1024.0 1023.3 0.0
27/10:30am 18.8 13.4 1.3 31 8.0 ESE 19 33 10 18 1024.2 1023.5 0.0
27/10:00am 17.8 11.8 0.9 32 7.5 E 22 30 12 16 1024.1 1023.4 0.0
27/09:30am 17.0 11.3 3.0 39 6.5 E 22 28 12 15 1024.2 1023.5 0.0
27/09:00am 15.7 10.6 3.2 43 5.7 E 19 26 10 14 1024.0 1023.3 0.0
27/08:30am 12.8 9.3 3.5 53 4.2 SE 11 13 6 7 1023.6 1023.0 0.0
27/08:00am 11.6 10.3 4.3 61 3.3 CALM 0 6 0 3 1023.4 1022.8 0.0
27/07:30am 9.4 8.2 4.6 72 2.2 CALM 0 2 0 1 1022.7 1022.1 0.0
27/07:00am 8.2 5.7 3.9 74 1.9 ESE 6 7 3 4 1022.5 1021.9 0.0
27/06:30am 8.0 6.7 4.0 76 1.8 CALM 0 0 0 0 1022.3 1021.7 0.0
27/06:00am 8.0 6.3 4.0 76 1.8 SSW 2 6 1 3 1021.9 1021.3 0.0
27/05:30am 8.0 5.3 3.5 73 2.0 SSW 7 9 4 5 1021.4 1020.8 0.0
27/05:00am 8.4 5.8 4.0 74 1.9 SSW 7 7 4 4 1021.3 1020.7 0.0
27/04:30am 9.1 7.7 3.7 69 2.4 CALM 0 0 0 0 1021.2 1020.6 0.0
27/04:00am 9.6 7.1 3.8 67 2.6 SSE 6 9 3 5 1021.0 1020.3 0.0
27/03:30am 9.5 6.4 3.5 66 2.6 S 9 11 5 6 1021.3 1020.7 0.0
27/03:00am 10.0 7.0 4.0 66 2.7 SSE 9 13 5 7 1021.4 1020.8 0.0
27/02:30am 9.9 7.8 3.9 66 2.7 S 4 6 2 3 1021.6 1021.0 0.0
27/02:00am 9.5 6.8 3.9 68 2.5 S 7 9 4 5 1021.6 1021.0 0.0
27/01:30am 10.5 8.1 4.4 66 2.8 S 6 9 3 5 1021.8 1021.2 0.0
27/01:00am 11.0 7.9 3.8 61 3.2 S 9 11 5 6 1021.9 1021.3 0.0
27/12:30am 11.7 9.0 3.7 58 3.6 S 7 9 4 5 1022.2 1021.6 0.0
27/12:00am 12.1 8.5 3.1 54 4.0 SSE 11 13 6 7 1022.2 1021.6 0.0
 
Date/Time
EST
Temp
°C
App
Temp
°C
Dew
Point
°C
Rel
Hum
%
Delta-T
°C
Wind Press
QNH
hPa
Press
MSL
hPa
Rain since
9am
mm
Dir  Spd
km/h
Gust
km/h
Spd
kts
Gust
kts
26/11:30pm 12.6 9.4 3.3 53 4.2 SSE 9 11 5 6 1022.3 1021.7 0.0
26/11:00pm 12.5 9.3 2.9 52 4.3 S 9 13 5 7 1022.4 1021.8 0.0
26/10:30pm 13.0 9.3 2.6 49 4.6 SSE 11 13 6 7 1022.1 1021.5 0.0
26/10:00pm 14.4 10.4 2.9 46 5.2 SE 13 17 7 9 1021.9 1021.3 0.0
26/09:30pm 14.9 10.9 2.8 44 5.5 SE 13 17 7 9 1021.9 1021.3 0.0
26/09:00pm 14.8 11.2 2.7 44 5.5 ESE 11 13 6 7 1021.7 1021.1 0.0
26/08:30pm 15.5 11.4 2.3 41 6.0 ESE 13 15 7 8 1021.6 1021.0 0.0
26/08:00pm 16.0 11.9 2.1 39 6.3 ESE 13 17 7 9 1021.4 1020.8 0.0
26/07:30pm 16.6 12.2 2.6 39 6.4 SE 15 17 8 9 1021.1 1020.5 0.0

Other Formats:

Comma delimited format used in spreadsheet applications
http://www.bom.gov.au/fwo/IDQ60801/IDQ60801.94338.axf

JavaScript Object Notation format (JSON) in row-major order
http://www.bom.gov.au/fwo/IDQ60801/IDQ60801.94338.json